createdAt,value
2023-05-01T00:08:01.080Z,15.00
2023-05-01T00:12:09.506Z,18.52
2023-05-01T00:16:15.073Z,14.90
2023-05-01T00:20:19.512Z,12.95
2023-05-01T00:24:22.391Z,15.73
2023-05-01T00:28:25.485Z,18.27
2023-05-01T00:32:28.574Z,11.68
2023-05-01T00:36:33.429Z,11.52
2023-05-01T00:40:43.770Z,19.42
2023-05-01T00:44:46.782Z,15.88
2023-05-01T00:48:49.543Z,14.77
2023-05-01T00:56:58.536Z,13.25
2023-05-01T01:01:02.567Z,17.45
2023-05-01T01:05:06.516Z,16.17
2023-05-01T01:09:20.938Z,15.20
2023-05-01T01:13:30.533Z,14.95
2023-05-01T01:17:43.762Z,14.52
2023-05-01T01:21:50.548Z,16.63
2023-05-01T01:26:14.606Z,20.77
2023-05-01T01:30:43.988Z,13.13
2023-05-01T01:34:53.699Z,16.10
2023-05-01T01:39:04.349Z,14.00
2023-05-01T01:43:09.674Z,17.27
2023-05-01T01:47:15.727Z,15.77
2023-05-01T01:51:23.768Z,13.95
2023-05-01T01:55:30.774Z,19.88
2023-05-01T01:59:36.598Z,16.17
2023-05-01T02:03:41.276Z,12.85
2023-05-01T02:07:49.790Z,13.48
2023-05-01T02:11:55.198Z,18.15
2023-05-01T02:16:00.236Z,17.58
2023-05-01T02:20:05.737Z,12.75
2023-05-01T02:24:10.839Z,18.35
2023-05-01T02:28:16.279Z,16.50
2023-05-01T02:32:19.145Z,15.25
2023-05-01T02:36:23.480Z,13.32
2023-05-01T02:40:28.940Z,12.50
2023-05-01T02:44:40.080Z,15.23
2023-05-01T02:48:44.472Z,14.65
2023-05-01T02:52:48.564Z,20.60
2023-05-01T02:56:54.086Z,21.15
2023-05-01T03:00:57.273Z,16.25
2023-05-01T03:05:00.172Z,14.27
2023-05-01T03:09:03.235Z,16.83
2023-05-01T03:13:07.484Z,14.70
2023-05-01T03:17:10.403Z,16.30
2023-05-01T03:21:13.843Z,20.00
2023-05-01T03:25:19.407Z,20.00
2023-05-01T03:29:24.044Z,18.20
2023-05-01T03:33:28.178Z,13.35
2023-05-01T03:37:34.093Z,18.98
2023-05-01T03:41:37.732Z,16.88
2023-05-01T03:45:44.812Z,18.63
2023-05-01T03:49:48.292Z,12.77
2023-05-01T03:53:52.677Z,16.30
2023-05-01T03:57:56.007Z,16.02
2023-05-01T04:02:00.598Z,12.45
2023-05-01T04:06:05.984Z,19.88
2023-05-01T04:10:10.124Z,14.35
2023-05-01T04:14:13.111Z,14.80
2023-05-01T04:18:17.780Z,12.63
2023-05-01T04:22:20.858Z,9.95
2023-05-01T04:26:24.135Z,14.52
2023-05-01T04:30:27.627Z,10.45
2023-05-01T04:34:32.092Z,14.60
2023-05-01T04:38:37.256Z,12.05
2023-05-01T04:42:40.016Z,12.10
2023-05-01T04:50:47.250Z,8.88
2023-05-01T04:54:50.028Z,11.48
2023-05-01T05:02:55.709Z,8.38
2023-05-01T05:07:00.181Z,8.30
2023-05-01T05:11:03.165Z,8.32
2023-05-01T05:15:06.409Z,9.95
2023-05-01T05:19:09.238Z,7.07
2023-05-01T05:23:13.743Z,7.55
2023-05-01T05:27:16.590Z,5.20
2023-05-01T05:31:19.313Z,5.63
2023-05-01T05:35:22.479Z,4.82
2023-05-01T05:39:26.816Z,5.35
2023-05-01T05:43:30.237Z,4.28
2023-05-01T05:47:34.048Z,4.55
2023-05-01T05:51:39.188Z,3.90
2023-05-01T05:55:45.624Z,4.35
2023-05-01T05:59:48.965Z,4.75
2023-05-01T06:03:52.191Z,5.65
2023-05-01T06:07:56.499Z,4.20
2023-05-01T06:12:03.769Z,5.50
2023-05-01T06:16:08.749Z,4.18
2023-05-01T06:20:14.354Z,5.07
2023-05-01T06:24:17.342Z,5.97
2023-05-01T06:28:22.774Z,4.45
2023-05-01T06:32:26.445Z,4.35
2023-05-01T06:36:29.652Z,5.10
2023-05-01T06:40:35.012Z,3.97
2023-05-01T06:44:42.741Z,5.28
2023-05-01T06:48:45.767Z,5.00
2023-05-01T06:52:48.599Z,3.80
2023-05-01T06:56:53.322Z,5.47
2023-05-01T07:00:57.895Z,5.85
2023-05-01T07:05:06.163Z,6.95
2023-05-01T07:09:09.773Z,3.58
2023-05-01T07:13:13.516Z,4.75
2023-05-01T07:17:18.827Z,6.15
2023-05-01T07:21:22.270Z,6.93
2023-05-01T07:25:25.432Z,4.20
2023-05-01T07:29:28.334Z,5.22
2023-05-01T07:33:32.903Z,4.65
2023-05-01T07:37:35.730Z,4.47
2023-05-01T07:41:38.781Z,4.85
2023-05-01T07:45:43.216Z,4.38
2023-05-01T07:49:47.847Z,4.45
2023-05-01T07:53:50.985Z,3.40
2023-05-01T07:57:53.950Z,7.00
2023-05-01T08:01:57.673Z,4.78
2023-05-01T08:06:02.130Z,4.75
2023-05-01T08:10:05.520Z,4.28
2023-05-01T08:14:08.736Z,5.20
2023-05-01T08:18:12.418Z,7.55
2023-05-01T08:22:16.911Z,3.45
2023-05-01T08:26:22.387Z,4.90
2023-05-01T08:30:26.662Z,4.97
2023-05-01T08:34:29.468Z,4.72
2023-05-01T08:38:33.853Z,4.45
2023-05-01T08:42:37.679Z,4.07
2023-05-01T08:46:48.596Z,5.60
2023-05-01T08:50:52.355Z,4.72
2023-05-01T08:55:01.563Z,4.63
2023-05-01T08:59:06.641Z,4.95
2023-05-01T09:03:15.892Z,5.80
2023-05-01T09:07:19.180Z,4.78
2023-05-01T09:11:26.243Z,4.47
2023-05-01T09:15:31.569Z,5.38
2023-05-01T09:19:35.605Z,3.33
2023-05-01T09:23:38.967Z,4.43
2023-05-01T09:27:45.709Z,5.95
2023-05-01T09:31:48.893Z,4.43
2023-05-01T09:35:53.873Z,4.50
2023-05-01T09:40:07.701Z,4.18
2023-05-01T09:44:21.221Z,3.97
2023-05-01T09:48:25.011Z,5.45
2023-05-01T09:52:29.173Z,5.22
2023-05-01T09:56:34.468Z,4.45
2023-05-01T10:00:49.231Z,4.72
2023-05-01T10:09:02.310Z,3.80
2023-05-01T10:13:15.555Z,5.88
2023-05-01T10:17:23.014Z,4.40
2023-05-01T10:21:25.839Z,6.40
2023-05-01T10:25:30.887Z,5.60
2023-05-01T10:29:37.012Z,3.40
2023-05-01T10:33:42.330Z,5.57
2023-05-01T10:37:51.141Z,3.13
2023-05-01T10:42:11.205Z,7.05
2023-05-01T10:46:31.240Z,5.85
2023-05-01T10:50:36.213Z,6.15
2023-05-01T10:54:40.950Z,3.10
2023-05-01T10:59:06.247Z,5.47
2023-05-01T11:03:36.843Z,6.45
2023-05-01T11:07:41.090Z,4.32
2023-05-01T11:11:53.199Z,6.55
2023-05-01T11:15:56.690Z,4.75
2023-05-01T11:20:01.710Z,8.07
2023-05-01T11:24:06.909Z,5.95
2023-05-01T11:28:11.894Z,4.88
2023-05-01T11:32:25.378Z,3.55
2023-05-01T11:36:29.269Z,6.07
2023-05-01T11:40:35.359Z,50.35
2023-05-01T11:44:41.630Z,4.00
2023-05-01T11:48:50.833Z,4.65
2023-05-01T11:52:54.055Z,19.38
2023-05-01T11:57:02.106Z,5.10
2023-05-01T12:01:07.548Z,4.45
2023-05-01T12:05:17.482Z,5.38
2023-05-01T12:09:22.102Z,4.72
2023-05-01T12:13:27.220Z,4.47
2023-05-01T12:17:30.703Z,4.80
2023-05-01T12:21:34.104Z,4.70
2023-05-01T12:25:37.880Z,6.68
2023-05-01T12:29:47.540Z,3.50
2023-05-01T12:33:57.287Z,6.68
2023-05-01T12:38:01.225Z,28.17
2023-05-01T12:42:05.205Z,4.80
2023-05-01T12:46:16.910Z,3.60
2023-05-01T12:50:20.787Z,11.55
2023-05-01T12:54:24.973Z,5.13
2023-05-01T12:58:38.454Z,14.38
2023-05-01T13:02:44.159Z,4.80
2023-05-01T13:06:47.696Z,6.82
2023-05-01T13:10:51.668Z,3.47
2023-05-01T13:14:58.747Z,10.23
2023-05-01T13:19:06.777Z,5.88
2023-05-01T13:23:13.975Z,4.88
2023-05-01T13:27:17.062Z,4.72
2023-05-01T13:31:21.514Z,4.70
2023-05-01T13:35:27.419Z,5.93
2023-05-01T13:39:30.792Z,5.72
2023-05-01T13:43:33.743Z,5.13
2023-05-01T13:47:40.916Z,5.40
2023-05-01T13:51:47.683Z,2.97
2023-05-01T13:55:50.899Z,5.60
2023-05-01T13:59:53.963Z,4.50
2023-05-01T14:04:00.564Z,7.43
2023-05-01T14:08:05.749Z,5.00
2023-05-01T14:12:14.164Z,5.28
2023-05-01T14:16:28.609Z,3.75
2023-05-01T14:20:31.531Z,6.95
2023-05-01T14:24:37.793Z,5.13
2023-05-01T14:28:44.796Z,7.40
2023-05-01T14:32:48.888Z,3.50
2023-05-01T14:36:57.233Z,9.63
2023-05-01T14:41:02.333Z,5.55
2023-05-01T14:45:08.380Z,4.15
2023-05-01T14:49:17.672Z,4.95
2023-05-01T14:53:21.489Z,5.47
2023-05-01T14:57:28.678Z,5.13
2023-05-01T15:01:33.054Z,4.25
2023-05-01T15:05:38.646Z,5.22
2023-05-01T15:09:48.507Z,7.97
2023-05-01T15:14:02.616Z,4.40
2023-05-01T15:18:05.899Z,7.32
2023-05-01T15:22:08.974Z,6.03
2023-05-01T15:26:15.938Z,4.30
2023-05-01T15:30:24.035Z,4.90
2023-05-01T15:34:27.814Z,4.68
2023-05-01T15:38:31.246Z,3.55
2023-05-01T15:42:34.487Z,4.25
2023-05-01T15:46:39.305Z,4.75
2023-05-01T15:50:42.947Z,6.07
2023-05-01T15:54:47.748Z,3.35
2023-05-01T15:58:51.276Z,4.90
2023-05-01T16:02:57.089Z,4.60
2023-05-01T16:07:03.894Z,3.53
2023-05-01T16:11:08.709Z,4.88
2023-05-01T16:15:13.985Z,6.80
2023-05-01T16:19:22.139Z,5.82
2023-05-01T16:27:30.602Z,6.70
2023-05-01T16:31:39.492Z,6.55
2023-05-01T16:35:44.677Z,5.63
2023-05-01T16:39:49.011Z,3.55
2023-05-01T16:43:52.895Z,6.10
2023-05-01T16:47:58.602Z,5.63
2023-05-01T16:52:04.386Z,5.15
2023-05-01T16:56:10.746Z,4.72
2023-05-01T17:00:16.349Z,3.80
2023-05-01T17:04:19.847Z,11.75
2023-05-01T17:08:24.976Z,4.60
2023-05-01T17:12:29.686Z,4.68
2023-05-01T17:16:33.625Z,6.15
2023-05-01T17:20:36.684Z,6.55
2023-05-01T17:24:41.604Z,4.80
2023-05-01T17:28:45.562Z,5.93
2023-05-01T17:32:50.635Z,11.55
2023-05-01T17:36:56.557Z,4.82
2023-05-01T17:41:03.420Z,10.25
2023-05-01T17:45:07.926Z,7.75
2023-05-01T17:49:11.193Z,10.73
2023-05-01T17:53:14.163Z,12.02
2023-05-01T18:01:21.565Z,17.08
2023-05-01T18:05:25.291Z,13.75
2023-05-01T18:09:27.956Z,13.07
2023-05-01T18:13:38.430Z,9.68
2023-05-01T18:17:41.776Z,12.27
2023-05-01T18:21:44.865Z,9.77
2023-05-01T18:25:47.729Z,12.77
2023-05-01T18:33:56.498Z,15.77
2023-05-01T18:37:59.544Z,17.27
2023-05-01T18:42:03.911Z,15.80
2023-05-01T18:46:08.888Z,18.20
2023-05-01T18:50:13.518Z,17.25
2023-05-01T18:54:17.322Z,27.27
2023-05-01T18:58:20.204Z,23.40
2023-05-01T19:06:27.821Z,29.13
2023-05-01T19:10:30.870Z,21.05
2023-05-01T19:14:33.667Z,22.00
2023-05-01T19:18:39.210Z,15.00
2023-05-01T19:22:42.428Z,12.02
2023-05-01T19:26:45.638Z,12.23
2023-05-01T19:30:48.990Z,12.07
2023-05-01T19:34:53.506Z,8.32
2023-05-01T19:38:56.418Z,13.18
2023-05-01T19:42:59.301Z,16.00
2023-05-01T19:51:06.645Z,11.93
2023-05-01T19:55:11.132Z,12.88
2023-05-01T19:59:14.256Z,11.20
2023-05-01T20:03:17.625Z,9.55
2023-05-01T20:07:22.287Z,8.60
2023-05-01T20:11:25.503Z,11.38
2023-05-01T20:19:31.804Z,11.35
2023-05-01T20:27:39.656Z,10.18
2023-05-01T20:31:43.048Z,8.60
2023-05-01T20:35:46.447Z,10.65
2023-05-01T20:39:50.664Z,7.60
2023-05-01T20:43:53.179Z,7.10
2023-05-01T20:51:59.395Z,6.30
2023-05-01T21:00:08.016Z,12.90
2023-05-01T21:04:11.207Z,8.60
2023-05-01T21:12:18.295Z,8.95
2023-05-01T21:16:23.139Z,8.70
2023-05-01T21:20:32.083Z,8.02
2023-05-01T21:24:36.675Z,8.68
2023-05-01T21:28:40.980Z,7.93
2023-05-01T21:32:44.096Z,11.05
2023-05-01T21:36:47.282Z,6.75
2023-05-01T21:40:50.708Z,6.05
2023-05-01T21:44:55.355Z,9.55
2023-05-01T21:48:58.669Z,11.95
2023-05-01T21:53:01.775Z,8.68
2023-05-01T21:57:08.083Z,7.07
2023-05-01T22:01:14.640Z,7.05
2023-05-01T22:05:26.517Z,7.28
2023-05-01T22:09:30.068Z,5.60
2023-05-01T22:13:34.481Z,6.55
2023-05-01T22:17:39.342Z,9.48
2023-05-01T22:21:43.099Z,9.27
2023-05-01T22:25:46.593Z,5.78
2023-05-01T22:29:49.398Z,8.75
2023-05-01T22:33:55.669Z,8.27
2023-05-01T22:37:59.380Z,8.00
2023-05-01T22:42:02.344Z,8.18
2023-05-01T22:46:06.117Z,6.82
2023-05-01T22:50:11.793Z,9.55
2023-05-01T22:54:15.069Z,7.32
2023-05-01T22:58:18.234Z,6.78
2023-05-01T23:06:25.612Z,5.40
2023-05-01T23:10:30.745Z,6.45
2023-05-01T23:14:35.304Z,7.43
2023-05-01T23:18:41.740Z,7.03
2023-05-01T23:22:46.483Z,7.90
2023-05-01T23:26:49.610Z,8.05
2023-05-01T23:30:56.725Z,7.20
2023-05-01T23:35:05.032Z,9.90
2023-05-01T23:39:09.561Z,6.70
2023-05-01T23:43:13.720Z,10.18
2023-05-01T23:47:16.801Z,10.32
2023-05-01T23:51:19.844Z,7.97
2023-05-01T23:55:24.234Z,6.32
2023-05-01T23:59:26.965Z,7.50
